ボードー の空港の天気 - METARとTAF

Bodo Vi ( ENBO / BOO ) - ノルウェー ヌールラン県ボードー
飛行場実況気象(Metar)
観測時間07/29 04:20 CEST (07/29 02:20 UTC)
風向・風速静穏 0m/s
視程10km以上
天気現象
なし
気温12℃
湿度100%
気圧1003hPa
METARENBO 290220Z 00000KT CAVOK 12/12 Q1003
過去の天気等 Google飛行場航空写真 Wunderground天気予報

過去48時間のMETAR

飛行場予報(TAF)
発表時間: -
29日2時 CEST ~ 29日5時 CEST に徐々に
風向・風速北 6m/s
TAF ENBO 2900/2924 22008KT CAVOK
BECMG 2900/2903 01012KT